createdAt,value
2018-11-23T00:01:47.029Z,11.37
2018-11-23T00:04:19.067Z,10.97
2018-11-23T00:06:51.123Z,11.63
2018-11-23T00:09:22.352Z,12.87
2018-11-23T00:11:53.434Z,12.07
2018-11-23T00:14:24.625Z,12.53
2018-11-23T00:16:55.736Z,11.47
2018-11-23T00:19:26.884Z,12.40
2018-11-23T00:21:58.077Z,11.47
2018-11-23T00:24:29.275Z,11.13
2018-11-23T00:27:00.477Z,11.93
2018-11-23T00:29:31.753Z,11.17
2018-11-23T00:32:02.959Z,11.33
2018-11-23T00:34:34.088Z,11.17
2018-11-23T00:37:05.230Z,10.83
2018-11-23T00:39:36.398Z,10.90
2018-11-23T00:42:07.676Z,12.83
2018-11-23T00:44:38.800Z,12.70
2018-11-23T00:47:09.954Z,11.90
2018-11-23T00:49:41.125Z,10.50
2018-11-23T00:52:12.275Z,11.63
2018-11-23T00:54:43.462Z,11.90
2018-11-23T00:57:20.596Z,11.10
2018-11-23T00:59:57.753Z,11.37
2018-11-23T01:02:28.964Z,10.83
2018-11-23T01:05:00.176Z,11.03
2018-11-23T01:07:31.310Z,10.50
2018-11-23T01:10:02.588Z,10.40
2018-11-23T01:12:33.837Z,10.63
2018-11-23T01:15:05.155Z,10.57
2018-11-23T01:17:36.463Z,11.10
2018-11-23T01:20:12.255Z,10.67
2018-11-23T01:22:43.576Z,9.97
2018-11-23T01:25:15.940Z,10.20
2018-11-23T01:27:48.065Z,11.17
2018-11-23T01:30:24.025Z,11.23
2018-11-23T01:32:55.170Z,11.23
2018-11-23T01:35:26.549Z,10.90
2018-11-23T01:37:57.665Z,11.90
2018-11-23T01:40:30.175Z,12.03
2018-11-23T01:43:01.329Z,11.33
2018-11-23T01:45:32.517Z,11.07
2018-11-23T01:48:03.661Z,11.07
2018-11-23T01:50:34.916Z,11.37
2018-11-23T01:53:06.126Z,10.87
2018-11-23T01:55:37.256Z,10.23
2018-11-23T01:58:08.365Z,11.40
2018-11-23T02:00:39.542Z,11.27
2018-11-23T02:03:10.664Z,10.47
2018-11-23T02:05:43.480Z,11.13
2018-11-23T02:08:14.627Z,10.63
2018-11-23T02:10:45.768Z,10.60
2018-11-23T02:13:16.898Z,11.07
2018-11-23T02:15:48.071Z,10.53
2018-11-23T02:18:19.196Z,10.77
2018-11-23T02:20:50.324Z,10.57
2018-11-23T02:23:21.418Z,10.07
2018-11-23T02:25:53.079Z,10.87
2018-11-23T02:28:24.179Z,10.37
2018-11-23T02:30:55.438Z,10.07
2018-11-23T02:33:26.606Z,11.13
2018-11-23T02:35:57.888Z,10.93
2018-11-23T02:38:28.990Z,10.40
2018-11-23T02:41:00.157Z,10.27
2018-11-23T02:43:31.255Z,11.90
2018-11-23T02:46:02.449Z,9.53
2018-11-23T02:48:33.569Z,11.97
2018-11-23T02:51:04.824Z,10.27
2018-11-23T02:53:36.029Z,10.47
2018-11-23T02:56:07.361Z,9.90
2018-11-23T02:58:38.492Z,12.47
2018-11-23T03:01:09.719Z,12.00
2018-11-23T03:03:40.881Z,11.10
2018-11-23T03:06:12.022Z,11.30
2018-11-23T03:08:43.145Z,11.20
2018-11-23T03:11:14.252Z,10.77
2018-11-23T03:13:45.376Z,12.13
2018-11-23T03:16:16.521Z,10.40
2018-11-23T03:18:47.669Z,10.80
2018-11-23T03:21:18.912Z,12.73
2018-11-23T03:23:50.008Z,11.93
2018-11-23T03:26:21.156Z,11.37
2018-11-23T03:28:52.933Z,10.87
2018-11-23T03:31:25.297Z,11.77
2018-11-23T03:33:56.613Z,11.10
2018-11-23T03:36:27.757Z,11.60
2018-11-23T03:38:58.896Z,9.73
2018-11-23T03:41:30.117Z,11.27
2018-11-23T03:44:01.238Z,11.50
2018-11-23T03:46:32.457Z,10.53
2018-11-23T03:49:03.744Z,11.57
2018-11-23T03:51:34.909Z,11.50
2018-11-23T03:54:06.787Z,10.67
2018-11-23T03:56:38.131Z,10.23
2018-11-23T03:59:09.233Z,9.17
2018-11-23T04:01:40.361Z,9.27
2018-11-23T04:04:11.528Z,9.77
2018-11-23T04:06:42.690Z,10.10
2018-11-23T04:09:13.828Z,10.00
2018-11-23T04:11:44.958Z,11.03
2018-11-23T04:14:16.172Z,10.13
2018-11-23T04:16:47.315Z,11.03
2018-11-23T04:19:18.439Z,10.70
2018-11-23T04:21:49.575Z,11.37
2018-11-23T04:24:20.717Z,10.40
2018-11-23T04:26:51.902Z,10.97
2018-11-23T04:29:23.019Z,11.60
2018-11-23T04:31:54.305Z,10.70
2018-11-23T04:34:25.853Z,10.57
2018-11-23T04:36:58.101Z,10.77
2018-11-23T04:39:31.668Z,10.47
2018-11-23T04:42:02.810Z,10.87
2018-11-23T04:44:33.952Z,10.27
2018-11-23T04:47:05.104Z,10.70
2018-11-23T04:49:36.234Z,11.60
2018-11-23T04:52:07.578Z,9.90
2018-11-23T04:54:38.696Z,11.40
2018-11-23T04:57:09.856Z,9.80
2018-11-23T04:59:40.962Z,11.23
2018-11-23T05:02:12.109Z,11.43
2018-11-23T05:04:43.265Z,10.70
2018-11-23T05:07:17.222Z,10.77
2018-11-23T05:09:48.628Z,10.80
2018-11-23T05:12:19.742Z,11.67
2018-11-23T05:14:50.893Z,11.53
2018-11-23T05:17:22.078Z,11.53
2018-11-23T05:19:53.285Z,11.33
2018-11-23T05:22:24.474Z,12.27
2018-11-23T05:24:55.579Z,11.70
2018-11-23T05:27:26.827Z,11.87
2018-11-23T05:29:57.957Z,11.10
2018-11-23T05:32:29.105Z,10.15
2018-11-23T05:35:00.241Z,10.50
2018-11-23T05:37:31.483Z,10.93
2018-11-23T05:40:02.726Z,10.53
2018-11-23T05:42:33.900Z,9.43
2018-11-23T05:45:05.941Z,9.23
2018-11-23T05:47:38.019Z,8.10
2018-11-23T05:50:13.664Z,8.70
2018-11-23T05:52:45.285Z,7.93
2018-11-23T05:55:16.420Z,9.60
2018-11-23T05:57:47.656Z,10.07
2018-11-23T06:00:21.324Z,10.10
2018-11-23T06:02:52.523Z,9.90
2018-11-23T06:05:23.669Z,9.70
2018-11-23T06:07:54.820Z,9.40
2018-11-23T06:10:25.960Z,9.63
2018-11-23T06:12:57.097Z,10.37
2018-11-23T06:15:28.242Z,9.37
2018-11-23T06:17:59.461Z,9.73
2018-11-23T06:20:30.614Z,10.53
2018-11-23T06:23:01.798Z,10.23
2018-11-23T06:25:41.193Z,9.50
2018-11-23T06:28:12.322Z,9.47
2018-11-23T06:30:43.438Z,9.70
2018-11-23T06:33:35.124Z,9.93
2018-11-23T06:36:06.342Z,11.03
2018-11-23T06:38:37.596Z,9.87
2018-11-23T06:41:10.555Z,10.33
2018-11-23T06:43:41.601Z,9.80
2018-11-23T06:46:13.381Z,10.13
2018-11-23T06:48:44.648Z,11.03
2018-11-23T06:51:15.789Z,9.57
2018-11-23T06:53:47.049Z,10.90
2018-11-23T06:56:18.191Z,9.50
2018-11-23T06:58:49.348Z,10.03
2018-11-23T07:01:20.581Z,9.97
2018-11-23T07:03:52.437Z,10.90
2018-11-23T07:06:23.625Z,10.27
2018-11-23T07:08:54.851Z,10.93
2018-11-23T07:11:26.040Z,10.80
2018-11-23T07:14:03.739Z,9.73
2018-11-23T07:16:29.271Z,10.10
2018-11-23T07:19:00.452Z,9.70
2018-11-23T07:21:31.643Z,10.40
2018-11-23T07:24:02.903Z,11.40
2018-11-23T07:26:34.139Z,11.70
2018-11-23T07:29:05.656Z,9.83
2018-11-23T07:31:36.956Z,11.40
2018-11-23T07:34:08.122Z,10.63
2018-11-23T07:36:39.370Z,11.93
2018-11-23T07:39:46.987Z,11.87
2018-11-23T07:42:28.806Z,12.70
2018-11-23T07:45:00.816Z,13.13
2018-11-23T07:47:32.002Z,13.23
2018-11-23T07:50:03.152Z,13.53
2018-11-23T07:52:34.270Z,14.13
2018-11-23T07:55:06.454Z,12.47
2018-11-23T07:57:37.730Z,11.23
2018-11-23T08:00:13.830Z,11.77
2018-11-23T08:02:45.473Z,11.87
2018-11-23T08:05:17.491Z,11.27
2018-11-23T08:07:48.609Z,11.37
2018-11-23T08:10:18.483Z,13.40
2018-11-23T08:12:50.666Z,14.07
2018-11-23T08:15:25.622Z,14.33
2018-11-23T08:17:56.771Z,12.93
2018-11-23T08:20:28.008Z,12.43
2018-11-23T08:22:59.136Z,12.83
2018-11-23T08:25:30.272Z,11.43
2018-11-23T08:28:01.390Z,11.83
2018-11-23T08:30:32.599Z,12.87
2018-11-23T08:33:03.805Z,11.80
2018-11-23T08:35:35.016Z,12.33
2018-11-23T08:38:06.260Z,12.10
2018-11-23T08:40:39.261Z,13.53
2018-11-23T08:43:10.485Z,13.43
2018-11-23T08:45:41.646Z,12.53
2018-11-23T08:48:12.827Z,13.77
2018-11-23T08:50:44.107Z,12.40
2018-11-23T08:53:15.255Z,13.93
2018-11-23T08:55:46.459Z,12.87
2018-11-23T08:58:17.704Z,15.57
2018-11-23T09:00:48.885Z,14.33
2018-11-23T09:03:20.150Z,13.87
2018-11-23T09:05:51.423Z,12.93
2018-11-23T09:08:22.650Z,14.77
2018-11-23T09:10:54.117Z,15.23
2018-11-23T09:13:25.347Z,14.90
2018-11-23T09:15:56.561Z,14.17
2018-11-23T09:18:27.746Z,14.53
2018-11-23T09:20:58.938Z,16.07
2018-11-23T09:23:30.106Z,14.40
2018-11-23T09:26:01.293Z,16.93
2018-11-23T09:28:32.448Z,14.97
2018-11-23T09:31:03.678Z,15.20
2018-11-23T09:33:34.872Z,14.53
2018-11-23T09:36:06.034Z,14.60
2018-11-23T09:38:37.314Z,13.83
2018-11-23T09:41:08.514Z,15.93
2018-11-23T09:43:39.756Z,13.87
2018-11-23T09:46:11.000Z,12.97
2018-11-23T09:48:42.182Z,16.30
2018-11-23T09:51:13.307Z,16.20
2018-11-23T09:53:44.495Z,16.13
2018-11-23T09:56:15.767Z,15.63
2018-11-23T09:58:47.023Z,15.07
2018-11-23T10:01:18.244Z,15.93
2018-11-23T10:03:49.358Z,17.03
2018-11-23T10:06:20.575Z,15.07
2018-11-23T10:08:51.787Z,15.93
2018-11-23T10:11:22.981Z,16.07
2018-11-23T10:13:55.040Z,14.40
2018-11-23T10:16:26.273Z,16.00
2018-11-23T10:18:57.369Z,16.60
2018-11-23T10:21:40.012Z,15.30
2018-11-23T10:24:16.556Z,16.90
2018-11-23T10:26:47.918Z,15.17
2018-11-23T10:29:19.498Z,14.73
2018-11-23T10:31:50.686Z,13.57
2018-11-23T10:34:21.829Z,15.73
2018-11-23T10:36:53.006Z,15.80
2018-11-23T10:39:24.179Z,15.27
2018-11-23T10:41:55.341Z,15.40
2018-11-23T10:44:26.492Z,13.80
2018-11-23T10:46:57.699Z,14.97
2018-11-23T10:49:29.772Z,14.37
2018-11-23T10:52:00.954Z,13.80
2018-11-23T10:54:32.087Z,12.90
2018-11-23T10:57:03.346Z,12.73
2018-11-23T10:59:34.506Z,12.70
2018-11-23T11:02:22.978Z,14.60
2018-11-23T11:05:12.766Z,12.47
2018-11-23T11:07:43.995Z,12.90
2018-11-23T11:10:15.347Z,12.63
2018-11-23T11:12:46.585Z,13.83
2018-11-23T11:15:17.744Z,13.90
2018-11-23T11:17:49.018Z,17.12
2018-11-23T11:20:20.387Z,16.85
2018-11-23T11:22:51.771Z,13.50
2018-11-23T11:25:22.885Z,12.77
2018-11-23T11:27:54.134Z,13.47
2018-11-23T11:30:25.296Z,16.90
2018-11-23T11:32:56.517Z,18.25
2018-11-23T11:35:27.671Z,17.02
2018-11-23T11:37:58.851Z,18.15
2018-11-23T11:40:30.018Z,17.57
2018-11-23T11:43:01.231Z,17.95
2018-11-23T11:45:32.430Z,17.15
2018-11-23T11:48:03.628Z,17.77
2018-11-23T11:50:34.770Z,17.12
2018-11-23T11:53:06.032Z,17.25
2018-11-23T11:55:37.177Z,16.93
2018-11-23T11:58:08.405Z,16.97
2018-11-23T12:00:39.688Z,17.52
2018-11-23T12:03:10.844Z,17.83
2018-11-23T12:05:42.005Z,17.77
2018-11-23T12:08:13.208Z,18.35
2018-11-23T12:10:44.410Z,12.97
2018-11-23T12:13:15.579Z,14.03
2018-11-23T12:15:46.789Z,12.93
2018-11-23T12:18:18.045Z,14.00
2018-11-23T12:20:49.169Z,15.83
2018-11-23T12:23:20.309Z,14.97
2018-11-23T12:25:51.448Z,13.83
2018-11-23T12:28:22.589Z,17.90
2018-11-23T12:30:53.731Z,15.17
2018-11-23T12:33:24.909Z,13.73
2018-11-23T12:35:56.172Z,14.30
2018-11-23T12:38:27.504Z,14.00
2018-11-23T12:40:58.669Z,14.57
2018-11-23T12:43:29.840Z,14.07
2018-11-23T12:46:01.028Z,14.43
2018-11-23T12:48:32.283Z,14.70
2018-11-23T12:51:03.430Z,16.33
2018-11-23T12:53:34.726Z,16.90
2018-11-23T12:56:06.465Z,13.70
2018-11-23T12:58:37.684Z,13.60
2018-11-23T13:01:08.981Z,14.20
2018-11-23T13:03:40.273Z,13.80
2018-11-23T13:06:11.393Z,13.73
2018-11-23T13:08:45.398Z,18.07
2018-11-23T13:11:16.562Z,18.13
2018-11-23T13:13:47.748Z,21.33
2018-11-23T13:16:18.918Z,22.62
2018-11-23T13:18:50.095Z,14.97
2018-11-23T13:21:21.250Z,13.63
2018-11-23T13:23:52.447Z,15.43
2018-11-23T13:26:26.446Z,16.57
2018-11-23T13:28:57.692Z,13.47
2018-11-23T13:31:28.953Z,13.13
2018-11-23T13:34:00.221Z,13.13
2018-11-23T13:36:31.498Z,13.33
2018-11-23T13:39:03.670Z,14.07
2018-11-23T13:41:35.696Z,12.93
2018-11-23T13:44:07.013Z,13.70
2018-11-23T13:46:38.186Z,13.33
2018-11-23T13:49:10.389Z,12.80
2018-11-23T13:51:41.612Z,16.15
2018-11-23T13:54:12.784Z,16.25
2018-11-23T13:56:45.249Z,17.00
2018-11-23T13:59:16.694Z,16.95
2018-11-23T14:01:47.922Z,15.93
2018-11-23T14:04:19.090Z,15.70
2018-11-23T14:06:50.289Z,16.63
2018-11-23T14:09:21.560Z,16.07
2018-11-23T14:11:52.911Z,16.77
2018-11-23T14:14:24.205Z,15.47
2018-11-23T14:16:55.381Z,15.08
2018-11-23T14:19:26.558Z,15.40
2018-11-23T14:21:57.767Z,14.60
2018-11-23T14:24:31.134Z,15.28
2018-11-23T14:27:02.286Z,15.60
2018-11-23T14:29:33.447Z,15.10
2018-11-23T14:32:04.630Z,15.78
2018-11-23T14:34:35.832Z,14.68
2018-11-23T14:37:07.169Z,16.00
2018-11-23T14:39:38.429Z,15.37
2018-11-23T14:42:10.350Z,15.20
2018-11-23T14:44:41.736Z,12.20
2018-11-23T14:47:13.021Z,12.47
2018-11-23T14:49:44.192Z,15.60
2018-11-23T14:52:22.789Z,16.27
2018-11-23T14:54:54.015Z,15.53
2018-11-23T14:57:25.257Z,15.80
2018-11-23T14:59:56.457Z,16.40
2018-11-23T15:02:27.734Z,16.85
2018-11-23T15:04:58.954Z,16.37
2018-11-23T15:07:30.197Z,18.23
2018-11-23T15:10:01.462Z,14.63
2018-11-23T15:12:32.720Z,18.40
2018-11-23T15:15:04.029Z,16.80
2018-11-23T15:17:38.742Z,18.07
2018-11-23T15:20:15.920Z,14.17
2018-11-23T15:22:47.849Z,12.67
2018-11-23T15:25:24.689Z,12.27
2018-11-23T15:28:01.740Z,13.17
2018-11-23T15:30:47.098Z,13.67
2018-11-23T15:33:18.945Z,13.70
2018-11-23T15:35:50.157Z,13.83
2018-11-23T15:38:22.963Z,15.00
2018-11-23T15:40:54.103Z,15.80
2018-11-23T15:43:25.258Z,15.43
2018-11-23T15:45:56.425Z,15.57
2018-11-23T15:48:27.646Z,15.37
2018-11-23T15:51:06.746Z,14.80
2018-11-23T15:53:54.420Z,15.60
2018-11-23T15:56:25.586Z,16.23
2018-11-23T15:58:56.844Z,17.00
2018-11-23T16:01:27.984Z,17.37
2018-11-23T16:03:59.163Z,17.23
2018-11-23T16:06:30.514Z,17.00
2018-11-23T16:09:01.775Z,16.67
2018-11-23T16:11:32.956Z,16.50
2018-11-23T16:14:04.139Z,17.90
2018-11-23T16:16:35.377Z,18.57
2018-11-23T16:19:06.551Z,16.43
2018-11-23T16:21:37.756Z,17.83
2018-11-23T16:24:09.041Z,15.83
2018-11-23T16:26:40.210Z,16.57
2018-11-23T16:29:11.378Z,17.47
2018-11-23T16:31:47.363Z,16.97
2018-11-23T16:34:24.165Z,16.20
2018-11-23T16:36:55.407Z,15.70
2018-11-23T16:39:26.610Z,15.57
2018-11-23T16:41:57.895Z,16.57
2018-11-23T16:44:29.045Z,15.60
2018-11-23T16:47:00.214Z,16.13
2018-11-23T16:49:31.383Z,17.27
2018-11-23T16:52:02.693Z,16.03
2018-11-23T16:54:33.952Z,15.80
2018-11-23T16:57:05.502Z,15.63
2018-11-23T17:08:15.063Z,18.77
2018-11-23T17:10:46.228Z,19.73
2018-11-23T17:13:17.387Z,17.60
2018-11-23T17:15:48.589Z,16.97
2018-11-23T17:18:20.166Z,16.63
2018-11-23T17:58:24.237Z,16.03
2018-11-23T18:00:55.711Z,16.40
2018-11-23T18:03:33.175Z,16.57
2018-11-23T18:06:06.999Z,16.87
2018-11-23T18:08:52.275Z,16.10
2018-11-23T18:23:49.139Z,15.77
2018-11-23T18:26:20.420Z,16.27
2018-11-23T18:28:51.661Z,15.43
2018-11-23T18:42:58.415Z,15.60
2018-11-23T18:48:18.541Z,15.90
2018-11-23T18:50:49.861Z,15.50
2018-11-23T19:07:59.867Z,14.90
2018-11-23T19:13:25.534Z,16.00
2018-11-23T19:19:04.604Z,18.33
2018-11-23T19:21:35.858Z,16.40
2018-11-23T19:24:07.279Z,17.67
2018-11-23T19:26:38.645Z,16.67
2018-11-23T19:29:22.214Z,16.97
2018-11-23T19:31:59.573Z,19.37
2018-11-23T19:34:30.789Z,18.10
2018-11-23T19:37:11.913Z,18.20
2018-11-23T19:39:43.128Z,16.97
2018-11-23T19:42:20.086Z,16.57
2018-11-23T19:44:51.251Z,16.57
2018-11-23T19:53:05.715Z,16.20
2018-11-23T19:55:37.023Z,15.43
2018-11-23T20:01:14.460Z,16.77
2018-11-23T20:03:45.826Z,17.63
2018-11-23T20:06:22.461Z,17.37
2018-11-23T20:09:03.329Z,15.60
2018-11-23T20:11:53.138Z,16.23
2018-11-23T20:14:24.297Z,15.87
2018-11-23T20:16:55.738Z,15.53
2018-11-23T20:19:28.350Z,15.20
2018-11-23T20:24:46.306Z,14.97
2018-11-23T20:27:17.636Z,16.93
2018-11-23T20:29:53.968Z,18.20
2018-11-23T20:32:28.900Z,15.60
2018-11-23T20:35:00.170Z,16.80
2018-11-23T20:37:32.718Z,16.00
2018-11-23T20:40:04.026Z,16.57
2018-11-23T20:42:36.365Z,16.03
2018-11-23T20:45:10.555Z,15.87
2018-11-23T20:50:32.975Z,17.53
2018-11-23T20:55:53.236Z,19.33
2018-11-23T21:06:39.579Z,15.20
2018-11-23T21:09:11.587Z,15.40
2018-11-23T21:11:42.892Z,16.33
2018-11-23T21:22:41.189Z,15.50
2018-11-23T21:25:12.820Z,14.70
2018-11-23T21:27:44.073Z,14.93
2018-11-23T21:30:19.299Z,15.83
2018-11-23T21:32:51.845Z,15.93
2018-11-23T21:35:23.146Z,15.77
2018-11-23T21:37:54.482Z,15.00
2018-11-23T21:40:25.769Z,14.33
2018-11-23T21:42:57.091Z,15.20
2018-11-23T21:45:28.395Z,16.63
2018-11-23T21:47:59.553Z,15.87
2018-11-23T21:50:30.752Z,16.97
2018-11-23T21:53:01.961Z,16.57
2018-11-23T21:55:33.218Z,16.20
2018-11-23T21:58:04.458Z,16.90
2018-11-23T22:00:35.652Z,16.40
2018-11-23T22:03:06.963Z,14.87
2018-11-23T22:05:43.805Z,14.83
2018-11-23T22:08:20.956Z,15.87
2018-11-23T22:10:54.541Z,15.10
2018-11-23T22:13:25.804Z,14.40
2018-11-23T22:15:57.014Z,14.13
2018-11-23T22:18:34.377Z,14.90
2018-11-23T22:21:10.767Z,14.47
2018-11-23T22:23:42.037Z,14.80
2018-11-23T22:26:17.158Z,15.03
2018-11-23T22:31:37.413Z,14.37
2018-11-23T22:34:08.613Z,15.33
2018-11-23T22:36:39.773Z,14.17
2018-11-23T22:39:10.968Z,14.37
2018-11-23T22:41:42.285Z,15.07
2018-11-23T22:44:13.555Z,14.53
2018-11-23T22:46:44.769Z,14.97
2018-11-23T22:49:15.975Z,13.73
2018-11-23T22:51:47.226Z,15.00
2018-11-23T22:54:18.450Z,14.67
2018-11-23T22:56:50.809Z,15.13
2018-11-23T22:59:28.074Z,13.97
2018-11-23T23:01:59.228Z,14.30
2018-11-23T23:04:30.819Z,13.93
2018-11-23T23:07:01.998Z,14.80
2018-11-23T23:09:33.312Z,14.70
2018-11-23T23:12:04.519Z,13.20
2018-11-23T23:14:35.710Z,13.93
2018-11-23T23:17:06.954Z,13.87
2018-11-23T23:19:38.309Z,14.93
2018-11-23T23:22:09.613Z,13.73
2018-11-23T23:24:40.977Z,14.03
2018-11-23T23:27:17.495Z,15.83
2018-11-23T23:29:48.713Z,14.33
2018-11-23T23:32:19.865Z,14.07
2018-11-23T23:34:51.055Z,14.00
2018-11-23T23:37:22.213Z,13.60
2018-11-23T23:39:53.439Z,13.87
2018-11-23T23:42:24.593Z,14.40
2018-11-23T23:44:55.765Z,14.13
2018-11-23T23:47:26.979Z,14.57
2018-11-23T23:49:58.267Z,13.60
2018-11-23T23:52:29.448Z,13.93
2018-11-23T23:55:00.649Z,14.13
2018-11-23T23:57:35.897Z,14.10
